sensor_id;sensor_type;location;lat;lon;timestamp;P1;durP1;ratioP1;P2;durP2;ratioP2
23402;SDS011;11874;48.228;11.684;2024-01-30T00:02:27;12.52;;;5.80;;
23402;SDS011;11874;48.228;11.684;2024-01-30T00:04:55;9.35;;;5.03;;
23402;SDS011;11874;48.228;11.684;2024-01-30T00:07:23;9.00;;;5.15;;
23402;SDS011;11874;48.228;11.684;2024-01-30T00:09:51;9.52;;;5.15;;
23402;SDS011;11874;48.228;11.684;2024-01-30T00:12:19;9.25;;;5.40;;
23402;SDS011;11874;48.228;11.684;2024-01-30T00:14:48;8.32;;;5.32;;
23402;SDS011;11874;48.228;11.684;2024-01-30T00:19:49;11.35;;;5.28;;
23402;SDS011;11874;48.228;11.684;2024-01-30T00:22:18;9.95;;;5.18;;
23402;SDS011;11874;48.228;11.684;2024-01-30T00:24:46;9.25;;;5.05;;
23402;SDS011;11874;48.228;11.684;2024-01-30T00:27:14;9.93;;;5.70;;
23402;SDS011;11874;48.228;11.684;2024-01-30T00:29:42;10.32;;;6.30;;
23402;SDS011;11874;48.228;11.684;2024-01-30T00:32:10;8.43;;;5.32;;
23402;SDS011;11874;48.228;11.684;2024-01-30T00:34:45;8.65;;;5.47;;
23402;SDS011;11874;48.228;11.684;2024-01-30T00:37:15;11.05;;;5.82;;
23402;SDS011;11874;48.228;11.684;2024-01-30T00:39:43;11.82;;;6.10;;
23402;SDS011;11874;48.228;11.684;2024-01-30T00:42:11;9.93;;;5.47;;
23402;SDS011;11874;48.228;11.684;2024-01-30T00:44:41;10.88;;;5.40;;
23402;SDS011;11874;48.228;11.684;2024-01-30T00:47:09;7.68;;;4.70;;
23402;SDS011;11874;48.228;11.684;2024-01-30T00:49:38;8.48;;;5.18;;
23402;SDS011;11874;48.228;11.684;2024-01-30T00:52:06;9.98;;;5.60;;
23402;SDS011;11874;48.228;11.684;2024-01-30T00:54:36;7.05;;;5.05;;
23402;SDS011;11874;48.228;11.684;2024-01-30T00:57:04;8.55;;;4.85;;
23402;SDS011;11874;48.228;11.684;2024-01-30T00:59:32;8.13;;;5.45;;
23402;SDS011;11874;48.228;11.684;2024-01-30T01:02:00;9.85;;;5.18;;
23402;SDS011;11874;48.228;11.684;2024-01-30T01:04:28;6.95;;;4.85;;
23402;SDS011;11874;48.228;11.684;2024-01-30T01:06:56;7.13;;;4.85;;
23402;SDS011;11874;48.228;11.684;2024-01-30T01:09:25;10.70;;;4.88;;
23402;SDS011;11874;48.228;11.684;2024-01-30T01:11:54;7.15;;;5.30;;
23402;SDS011;11874;48.228;11.684;2024-01-30T01:14:25;12.75;;;5.78;;
23402;SDS011;11874;48.228;11.684;2024-01-30T01:16:54;9.68;;;5.22;;
23402;SDS011;11874;48.228;11.684;2024-01-30T01:19:22;8.40;;;5.30;;
23402;SDS011;11874;48.228;11.684;2024-01-30T01:21:51;8.95;;;4.80;;
23402;SDS011;11874;48.228;11.684;2024-01-30T01:24:33;9.53;;;5.13;;
23402;SDS011;11874;48.228;11.684;2024-01-30T01:27:04;12.05;;;5.60;;
23402;SDS011;11874;48.228;11.684;2024-01-30T01:29:33;7.50;;;4.97;;
23402;SDS011;11874;48.228;11.684;2024-01-30T01:32:04;9.60;;;5.53;;
23402;SDS011;11874;48.228;11.684;2024-01-30T01:34:32;13.82;;;5.35;;
23402;SDS011;11874;48.228;11.684;2024-01-30T01:37:02;10.25;;;5.60;;
23402;SDS011;11874;48.228;11.684;2024-01-30T01:39:31;10.05;;;5.57;;
23402;SDS011;11874;48.228;11.684;2024-01-30T01:41:59;10.43;;;5.35;;
23402;SDS011;11874;48.228;11.684;2024-01-30T01:44:30;9.55;;;5.78;;
23402;SDS011;11874;48.228;11.684;2024-01-30T01:46:57;8.32;;;5.30;;
23402;SDS011;11874;48.228;11.684;2024-01-30T01:49:28;8.82;;;5.55;;
23402;SDS011;11874;48.228;11.684;2024-01-30T01:51:56;10.32;;;5.88;;
23402;SDS011;11874;48.228;11.684;2024-01-30T01:54:26;9.32;;;5.85;;
23402;SDS011;11874;48.228;11.684;2024-01-30T01:56:57;9.18;;;4.78;;
23402;SDS011;11874;48.228;11.684;2024-01-30T01:59:27;10.87;;;5.73;;
23402;SDS011;11874;48.228;11.684;2024-01-30T02:01:58;11.70;;;5.78;;
23402;SDS011;11874;48.228;11.684;2024-01-30T02:04:29;7.38;;;4.00;;
23402;SDS011;11874;48.228;11.684;2024-01-30T02:06:58;8.88;;;5.63;;
23402;SDS011;11874;48.228;11.684;2024-01-30T02:09:26;10.93;;;5.63;;
23402;SDS011;11874;48.228;11.684;2024-01-30T02:11:54;8.32;;;5.32;;
23402;SDS011;11874;48.228;11.684;2024-01-30T02:14:24;11.05;;;5.78;;
23402;SDS011;11874;48.228;11.684;2024-01-30T02:16:58;7.50;;;5.53;;
23402;SDS011;11874;48.228;11.684;2024-01-30T02:19:26;9.57;;;5.53;;
23402;SDS011;11874;48.228;11.684;2024-01-30T02:21:55;7.93;;;5.07;;
23402;SDS011;11874;48.228;11.684;2024-01-30T02:24:23;9.35;;;5.82;;
23402;SDS011;11874;48.228;11.684;2024-01-30T02:26:52;11.27;;;6.43;;
23402;SDS011;11874;48.228;11.684;2024-01-30T02:29:20;11.15;;;5.75;;
23402;SDS011;11874;48.228;11.684;2024-01-30T02:31:49;9.57;;;5.45;;
23402;SDS011;11874;48.228;11.684;2024-01-30T02:34:19;11.82;;;5.88;;
23402;SDS011;11874;48.228;11.684;2024-01-30T02:36:47;10.65;;;5.85;;
23402;SDS011;11874;48.228;11.684;2024-01-30T02:39:17;10.63;;;5.95;;
23402;SDS011;11874;48.228;11.684;2024-01-30T02:41:45;11.63;;;5.45;;
23402;SDS011;11874;48.228;11.684;2024-01-30T02:44:14;8.27;;;5.40;;
23402;SDS011;11874;48.228;11.684;2024-01-30T02:46:42;13.40;;;6.00;;
23402;SDS011;11874;48.228;11.684;2024-01-30T02:49:13;9.10;;;5.32;;
23402;SDS011;11874;48.228;11.684;2024-01-30T02:51:41;11.20;;;6.00;;
23402;SDS011;11874;48.228;11.684;2024-01-30T02:54:10;12.65;;;5.53;;
23402;SDS011;11874;48.228;11.684;2024-01-30T02:56:39;9.07;;;5.68;;
23402;SDS011;11874;48.228;11.684;2024-01-30T02:59:07;8.25;;;5.15;;
23402;SDS011;11874;48.228;11.684;2024-01-30T03:01:42;10.90;;;5.50;;
23402;SDS011;11874;48.228;11.684;2024-01-30T03:04:10;9.52;;;5.03;;
23402;SDS011;11874;48.228;11.684;2024-01-30T03:06:44;8.73;;;5.60;;
23402;SDS011;11874;48.228;11.684;2024-01-30T03:09:15;11.75;;;5.75;;
23402;SDS011;11874;48.228;11.684;2024-01-30T03:11:46;11.00;;;6.07;;
23402;SDS011;11874;48.228;11.684;2024-01-30T03:14:14;10.02;;;5.72;;
23402;SDS011;11874;48.228;11.684;2024-01-30T03:16:42;7.97;;;5.88;;
23402;SDS011;11874;48.228;11.684;2024-01-30T03:19:09;9.18;;;5.10;;
23402;SDS011;11874;48.228;11.684;2024-01-30T03:21:37;9.35;;;5.45;;
23402;SDS011;11874;48.228;11.684;2024-01-30T03:24:06;9.57;;;5.15;;
23402;SDS011;11874;48.228;11.684;2024-01-30T03:26:35;7.78;;;4.72;;
23402;SDS011;11874;48.228;11.684;2024-01-30T03:29:05;7.70;;;5.35;;
23402;SDS011;11874;48.228;11.684;2024-01-30T03:31:33;10.10;;;5.32;;
23402;SDS011;11874;48.228;11.684;2024-01-30T03:34:01;11.20;;;5.47;;
23402;SDS011;11874;48.228;11.684;2024-01-30T03:36:30;12.73;;;5.40;;
23402;SDS011;11874;48.228;11.684;2024-01-30T03:38:59;10.95;;;5.85;;
23402;SDS011;11874;48.228;11.684;2024-01-30T03:41:27;11.43;;;4.88;;
23402;SDS011;11874;48.228;11.684;2024-01-30T03:43:56;7.38;;;4.95;;
23402;SDS011;11874;48.228;11.684;2024-01-30T03:46:26;9.57;;;5.05;;
23402;SDS011;11874;48.228;11.684;2024-01-30T03:48:53;8.90;;;5.15;;
23402;SDS011;11874;48.228;11.684;2024-01-30T03:51:22;10.15;;;5.30;;
23402;SDS011;11874;48.228;11.684;2024-01-30T03:53:50;10.15;;;5.25;;
23402;SDS011;11874;48.228;11.684;2024-01-30T03:56:17;8.55;;;4.72;;
23402;SDS011;11874;48.228;11.684;2024-01-30T03:58:46;11.93;;;4.70;;
23402;SDS011;11874;48.228;11.684;2024-01-30T04:01:14;7.35;;;5.07;;
23402;SDS011;11874;48.228;11.684;2024-01-30T04:03:44;11.40;;;5.43;;
23402;SDS011;11874;48.228;11.684;2024-01-30T04:06:13;9.57;;;4.85;;
23402;SDS011;11874;48.228;11.684;2024-01-30T04:08:41;10.65;;;5.97;;
23402;SDS011;11874;48.228;11.684;2024-01-30T04:11:09;8.90;;;4.55;;
23402;SDS011;11874;48.228;11.684;2024-01-30T04:13:37;7.53;;;4.40;;
23402;SDS011;11874;48.228;11.684;2024-01-30T04:16:06;6.82;;;4.28;;
23402;SDS011;11874;48.228;11.684;2024-01-30T04:18:36;8.10;;;4.78;;
23402;SDS011;11874;48.228;11.684;2024-01-30T04:21:06;11.68;;;4.70;;
23402;SDS011;11874;48.228;11.684;2024-01-30T04:23:34;10.93;;;5.70;;
23402;SDS011;11874;48.228;11.684;2024-01-30T04:26:02;10.23;;;5.95;;
23402;SDS011;11874;48.228;11.684;2024-01-30T04:28:30;7.00;;;4.70;;
23402;SDS011;11874;48.228;11.684;2024-01-30T04:30:59;9.82;;;5.38;;
23402;SDS011;11874;48.228;11.684;2024-01-30T04:33:28;7.47;;;4.40;;
23402;SDS011;11874;48.228;11.684;2024-01-30T04:35:56;11.13;;;4.75;;
23402;SDS011;11874;48.228;11.684;2024-01-30T04:38:26;7.95;;;4.32;;
23402;SDS011;11874;48.228;11.684;2024-01-30T04:40:54;8.50;;;4.60;;
23402;SDS011;11874;48.228;11.684;2024-01-30T04:43:25;6.35;;;4.13;;
23402;SDS011;11874;48.228;11.684;2024-01-30T04:45:53;6.70;;;4.30;;
23402;SDS011;11874;48.228;11.684;2024-01-30T04:48:23;6.97;;;4.13;;
23402;SDS011;11874;48.228;11.684;2024-01-30T04:50:51;9.60;;;5.05;;
23402;SDS011;11874;48.228;11.684;2024-01-30T04:53:19;7.10;;;4.53;;
23402;SDS011;11874;48.228;11.684;2024-01-30T04:55:51;6.60;;;4.55;;
23402;SDS011;11874;48.228;11.684;2024-01-30T04:58:19;8.95;;;4.82;;
23402;SDS011;11874;48.228;11.684;2024-01-30T05:00:48;6.57;;;4.38;;
23402;SDS011;11874;48.228;11.684;2024-01-30T05:03:18;8.60;;;4.65;;
23402;SDS011;11874;48.228;11.684;2024-01-30T05:05:49;8.32;;;4.10;;
23402;SDS011;11874;48.228;11.684;2024-01-30T05:08:17;6.95;;;4.93;;
23402;SDS011;11874;48.228;11.684;2024-01-30T05:10:45;7.85;;;4.57;;
23402;SDS011;11874;48.228;11.684;2024-01-30T05:13:15;6.28;;;4.25;;
23402;SDS011;11874;48.228;11.684;2024-01-30T05:15:44;8.02;;;4.13;;
23402;SDS011;11874;48.228;11.684;2024-01-30T05:18:12;9.48;;;5.10;;
23402;SDS011;11874;48.228;11.684;2024-01-30T05:20:41;9.70;;;4.60;;
23402;SDS011;11874;48.228;11.684;2024-01-30T05:23:09;7.50;;;4.07;;
23402;SDS011;11874;48.228;11.684;2024-01-30T05:25:37;8.88;;;4.55;;
23402;SDS011;11874;48.228;11.684;2024-01-30T05:28:05;8.07;;;4.30;;
23402;SDS011;11874;48.228;11.684;2024-01-30T05:30:36;8.43;;;4.35;;
23402;SDS011;11874;48.228;11.684;2024-01-30T05:33:06;8.90;;;4.47;;
23402;SDS011;11874;48.228;11.684;2024-01-30T05:35:34;10.05;;;4.63;;
23402;SDS011;11874;48.228;11.684;2024-01-30T05:38:05;7.88;;;4.53;;
23402;SDS011;11874;48.228;11.684;2024-01-30T05:40:36;6.50;;;4.13;;
23402;SDS011;11874;48.228;11.684;2024-01-30T05:43:04;9.77;;;4.65;;
23402;SDS011;11874;48.228;11.684;2024-01-30T05:45:33;7.00;;;4.03;;
23402;SDS011;11874;48.228;11.684;2024-01-30T05:48:05;9.30;;;4.60;;
23402;SDS011;11874;48.228;11.684;2024-01-30T05:50:34;6.63;;;4.70;;
23402;SDS011;11874;48.228;11.684;2024-01-30T05:53:05;8.03;;;4.50;;
23402;SDS011;11874;48.228;11.684;2024-01-30T05:55:33;8.48;;;4.68;;
23402;SDS011;11874;48.228;11.684;2024-01-30T05:58:01;11.52;;;4.38;;
23402;SDS011;11874;48.228;11.684;2024-01-30T06:00:30;7.20;;;4.13;;
23402;SDS011;11874;48.228;11.684;2024-01-30T06:03:00;5.95;;;3.80;;
23402;SDS011;11874;48.228;11.684;2024-01-30T06:05:28;7.82;;;4.40;;
23402;SDS011;11874;48.228;11.684;2024-01-30T06:07:56;12.10;;;4.18;;
23402;SDS011;11874;48.228;11.684;2024-01-30T06:10:24;7.60;;;3.90;;
23402;SDS011;11874;48.228;11.684;2024-01-30T06:12:52;7.97;;;4.53;;
23402;SDS011;11874;48.228;11.684;2024-01-30T06:15:20;8.18;;;3.83;;
23402;SDS011;11874;48.228;11.684;2024-01-30T06:17:48;8.13;;;4.25;;
23402;SDS011;11874;48.228;11.684;2024-01-30T06:20:17;7.45;;;3.90;;
23402;SDS011;11874;48.228;11.684;2024-01-30T06:22:46;5.60;;;3.72;;
23402;SDS011;11874;48.228;11.684;2024-01-30T06:25:15;9.88;;;4.10;;
23402;SDS011;11874;48.228;11.684;2024-01-30T06:27:43;7.93;;;3.80;;
23402;SDS011;11874;48.228;11.684;2024-01-30T06:30:12;7.05;;;3.97;;
23402;SDS011;11874;48.228;11.684;2024-01-30T06:32:42;12.52;;;4.15;;
23402;SDS011;11874;48.228;11.684;2024-01-30T06:35:10;6.00;;;3.40;;
23402;SDS011;11874;48.228;11.684;2024-01-30T06:37:40;8.50;;;4.63;;
23402;SDS011;11874;48.228;11.684;2024-01-30T06:40:08;7.03;;;3.97;;
23402;SDS011;11874;48.228;11.684;2024-01-30T06:42:37;5.53;;;3.70;;
23402;SDS011;11874;48.228;11.684;2024-01-30T06:45:06;5.88;;;3.70;;
23402;SDS011;11874;48.228;11.684;2024-01-30T06:47:35;6.80;;;4.00;;
23402;SDS011;11874;48.228;11.684;2024-01-30T06:50:03;4.20;;;3.28;;
23402;SDS011;11874;48.228;11.684;2024-01-30T06:52:32;5.20;;;3.22;;
23402;SDS011;11874;48.228;11.684;2024-01-30T06:55:02;6.35;;;3.42;;
23402;SDS011;11874;48.228;11.684;2024-01-30T06:57:31;6.55;;;3.80;;
23402;SDS011;11874;48.228;11.684;2024-01-30T07:00:00;4.80;;;3.67;;
23402;SDS011;11874;48.228;11.684;2024-01-30T07:02:28;7.72;;;3.53;;
23402;SDS011;11874;48.228;11.684;2024-01-30T07:04:59;6.20;;;3.58;;
23402;SDS011;11874;48.228;11.684;2024-01-30T07:07:29;7.95;;;3.75;;
23402;SDS011;11874;48.228;11.684;2024-01-30T07:09:57;8.05;;;3.50;;
23402;SDS011;11874;48.228;11.684;2024-01-30T07:12:26;8.40;;;3.70;;
23402;SDS011;11874;48.228;11.684;2024-01-30T07:14:54;4.95;;;3.72;;
23402;SDS011;11874;48.228;11.684;2024-01-30T07:17:26;6.00;;;3.70;;
23402;SDS011;11874;48.228;11.684;2024-01-30T07:19:54;5.22;;;3.58;;
23402;SDS011;11874;48.228;11.684;2024-01-30T07:22:22;6.50;;;3.50;;
23402;SDS011;11874;48.228;11.684;2024-01-30T07:24:50;7.55;;;4.25;;
23402;SDS011;11874;48.228;11.684;2024-01-30T07:27:19;11.90;;;4.30;;
23402;SDS011;11874;48.228;11.684;2024-01-30T07:29:49;9.38;;;4.15;;
23402;SDS011;11874;48.228;11.684;2024-01-30T07:32:17;8.60;;;4.38;;
23402;SDS011;11874;48.228;11.684;2024-01-30T07:34:46;8.90;;;5.15;;
23402;SDS011;11874;48.228;11.684;2024-01-30T07:37:32;9.50;;;4.32;;
23402;SDS011;11874;48.228;11.684;2024-01-30T07:40:00;7.30;;;4.47;;
23402;SDS011;11874;48.228;11.684;2024-01-30T07:42:30;5.68;;;3.47;;
23402;SDS011;11874;48.228;11.684;2024-01-30T07:45:01;9.00;;;3.40;;
23402;SDS011;11874;48.228;11.684;2024-01-30T07:47:29;5.88;;;3.33;;
23402;SDS011;11874;48.228;11.684;2024-01-30T07:49:57;6.40;;;3.45;;
23402;SDS011;11874;48.228;11.684;2024-01-30T07:52:26;7.25;;;3.30;;
23402;SDS011;11874;48.228;11.684;2024-01-30T07:54:56;4.47;;;3.00;;
23402;SDS011;11874;48.228;11.684;2024-01-30T07:57:24;4.38;;;2.55;;
23402;SDS011;11874;48.228;11.684;2024-01-30T07:59:52;5.95;;;2.85;;
23402;SDS011;11874;48.228;11.684;2024-01-30T08:02:21;4.85;;;2.95;;
23402;SDS011;11874;48.228;11.684;2024-01-30T08:04:50;4.63;;;2.92;;
23402;SDS011;11874;48.228;11.684;2024-01-30T08:07:20;5.70;;;3.00;;
23402;SDS011;11874;48.228;11.684;2024-01-30T08:09:48;4.00;;;2.78;;
23402;SDS011;11874;48.228;11.684;2024-01-30T08:12:16;6.30;;;2.67;;
23402;SDS011;11874;48.228;11.684;2024-01-30T08:14:44;6.38;;;3.00;;
23402;SDS011;11874;48.228;11.684;2024-01-30T08:17:13;5.25;;;2.70;;
23402;SDS011;11874;48.228;11.684;2024-01-30T08:19:42;6.68;;;2.78;;
23402;SDS011;11874;48.228;11.684;2024-01-30T08:22:11;6.85;;;3.38;;
23402;SDS011;11874;48.228;11.684;2024-01-30T08:24:40;4.75;;;2.55;;
23402;SDS011;11874;48.228;11.684;2024-01-30T08:27:08;7.55;;;2.97;;
23402;SDS011;11874;48.228;11.684;2024-01-30T08:29:36;5.03;;;2.75;;
23402;SDS011;11874;48.228;11.684;2024-01-30T08:32:05;7.22;;;2.80;;
23402;SDS011;11874;48.228;11.684;2024-01-30T08:34:36;4.60;;;2.00;;
23402;SDS011;11874;48.228;11.684;2024-01-30T08:37:06;3.65;;;2.70;;
23402;SDS011;11874;48.228;11.684;2024-01-30T08:39:34;5.80;;;2.70;;
23402;SDS011;11874;48.228;11.684;2024-01-30T08:42:02;4.93;;;3.10;;
23402;SDS011;11874;48.228;11.684;2024-01-30T08:44:32;6.45;;;2.80;;
23402;SDS011;11874;48.228;11.684;2024-01-30T08:47:00;6.53;;;3.22;;
23402;SDS011;11874;48.228;11.684;2024-01-30T08:49:28;6.28;;;2.90;;
23402;SDS011;11874;48.228;11.684;2024-01-30T08:51:57;5.40;;;3.10;;
23402;SDS011;11874;48.228;11.684;2024-01-30T08:54:27;4.15;;;2.75;;
23402;SDS011;11874;48.228;11.684;2024-01-30T08:56:55;4.20;;;3.00;;
23402;SDS011;11874;48.228;11.684;2024-01-30T08:59:24;7.97;;;3.30;;
23402;SDS011;11874;48.228;11.684;2024-01-30T09:01:52;5.63;;;3.28;;
23402;SDS011;11874;48.228;11.684;2024-01-30T09:04:36;6.03;;;3.05;;
23402;SDS011;11874;48.228;11.684;2024-01-30T09:07:08;8.50;;;3.55;;
23402;SDS011;11874;48.228;11.684;2024-01-30T09:09:39;9.45;;;3.05;;
23402;SDS011;11874;48.228;11.684;2024-01-30T09:12:10;4.85;;;2.85;;
23402;SDS011;11874;48.228;11.684;2024-01-30T09:14:42;10.77;;;3.42;;
23402;SDS011;11874;48.228;11.684;2024-01-30T09:17:14;9.30;;;3.22;;
23402;SDS011;11874;48.228;11.684;2024-01-30T09:19:42;7.60;;;3.40;;
23402;SDS011;11874;48.228;11.684;2024-01-30T09:22:10;5.03;;;2.92;;
23402;SDS011;11874;48.228;11.684;2024-01-30T09:24:39;7.07;;;3.63;;
23402;SDS011;11874;48.228;11.684;2024-01-30T09:27:10;6.22;;;3.35;;
23402;SDS011;11874;48.228;11.684;2024-01-30T09:29:39;8.10;;;3.60;;
23402;SDS011;11874;48.228;11.684;2024-01-30T09:32:08;11.45;;;3.97;;
23402;SDS011;11874;48.228;11.684;2024-01-30T09:34:36;5.88;;;3.45;;
23402;SDS011;11874;48.228;11.684;2024-01-30T09:37:07;9.20;;;3.67;;
23402;SDS011;11874;48.228;11.684;2024-01-30T09:39:36;6.65;;;3.72;;
23402;SDS011;11874;48.228;11.684;2024-01-30T09:42:15;3.67;;;3.03;;
23402;SDS011;11874;48.228;11.684;2024-01-30T09:44:48;11.68;;;3.85;;
23402;SDS011;11874;48.228;11.684;2024-01-30T09:47:18;5.72;;;2.80;;
23402;SDS011;11874;48.228;11.684;2024-01-30T09:49:46;5.80;;;3.58;;
23402;SDS011;11874;48.228;11.684;2024-01-30T09:52:16;7.05;;;3.50;;
23402;SDS011;11874;48.228;11.684;2024-01-30T09:54:45;7.30;;;3.65;;
23402;SDS011;11874;48.228;11.684;2024-01-30T09:57:16;8.88;;;4.00;;
23402;SDS011;11874;48.228;11.684;2024-01-30T10:02:17;6.05;;;3.40;;
23402;SDS011;11874;48.228;11.684;2024-01-30T10:04:47;8.00;;;3.60;;
23402;SDS011;11874;48.228;11.684;2024-01-30T10:07:16;5.78;;;3.45;;
23402;SDS011;11874;48.228;11.684;2024-01-30T10:09:45;6.55;;;3.13;;
23402;SDS011;11874;48.228;11.684;2024-01-30T10:12:16;4.88;;;3.00;;
23402;SDS011;11874;48.228;11.684;2024-01-30T10:14:45;6.63;;;4.38;;
23402;SDS011;11874;48.228;11.684;2024-01-30T10:17:15;6.80;;;3.00;;
23402;SDS011;11874;48.228;11.684;2024-01-30T10:22:26;9.32;;;3.33;;
23402;SDS011;11874;48.228;11.684;2024-01-30T10:24:54;5.45;;;3.53;;
23402;SDS011;11874;48.228;11.684;2024-01-30T10:27:28;7.43;;;2.78;;
23402;SDS011;11874;48.228;11.684;2024-01-30T10:29:58;7.25;;;3.30;;
23402;SDS011;11874;48.228;11.684;2024-01-30T10:32:27;6.95;;;3.13;;
23402;SDS011;11874;48.228;11.684;2024-01-30T10:34:55;4.50;;;2.80;;
23402;SDS011;11874;48.228;11.684;2024-01-30T10:37:25;5.45;;;3.05;;
23402;SDS011;11874;48.228;11.684;2024-01-30T10:39:53;8.43;;;3.45;;
23402;SDS011;11874;48.228;11.684;2024-01-30T10:42:25;7.63;;;3.47;;
23402;SDS011;11874;48.228;11.684;2024-01-30T10:45:00;4.57;;;2.65;;
23402;SDS011;11874;48.228;11.684;2024-01-30T10:47:34;6.03;;;2.75;;
23402;SDS011;11874;48.228;11.684;2024-01-30T10:50:03;10.80;;;3.45;;
23402;SDS011;11874;48.228;11.684;2024-01-30T10:52:34;10.88;;;3.28;;
23402;SDS011;11874;48.228;11.684;2024-01-30T10:55:04;6.93;;;3.30;;
23402;SDS011;11874;48.228;11.684;2024-01-30T10:57:35;5.47;;;3.65;;
23402;SDS011;11874;48.228;11.684;2024-01-30T11:00:08;5.13;;;2.95;;
23402;SDS011;11874;48.228;11.684;2024-01-30T11:02:40;10.32;;;3.75;;
23402;SDS011;11874;48.228;11.684;2024-01-30T11:05:09;6.88;;;3.50;;
23402;SDS011;11874;48.228;11.684;2024-01-30T11:07:38;8.77;;;3.53;;
23402;SDS011;11874;48.228;11.684;2024-01-30T11:10:07;12.40;;;4.00;;
23402;SDS011;11874;48.228;11.684;2024-01-30T11:12:40;10.93;;;4.38;;
23402;SDS011;11874;48.228;11.684;2024-01-30T11:15:12;10.68;;;4.88;;
23402;SDS011;11874;48.228;11.684;2024-01-30T11:17:41;14.45;;;3.78;;
23402;SDS011;11874;48.228;11.684;2024-01-30T11:20:14;8.05;;;3.50;;
23402;SDS011;11874;48.228;11.684;2024-01-30T11:22:47;11.32;;;4.18;;
23402;SDS011;11874;48.228;11.684;2024-01-30T11:25:19;8.50;;;3.38;;
23402;SDS011;11874;48.228;11.684;2024-01-30T11:27:52;8.57;;;4.03;;
23402;SDS011;11874;48.228;11.684;2024-01-30T11:30:22;9.50;;;4.03;;
23402;SDS011;11874;48.228;11.684;2024-01-30T11:32:58;6.72;;;3.33;;
23402;SDS011;11874;48.228;11.684;2024-01-30T11:35:29;11.90;;;4.30;;
23402;SDS011;11874;48.228;11.684;2024-01-30T11:37:58;6.47;;;3.58;;
23402;SDS011;11874;48.228;11.684;2024-01-30T11:40:29;7.65;;;3.80;;
23402;SDS011;11874;48.228;11.684;2024-01-30T11:43:00;9.23;;;4.30;;
23402;SDS011;11874;48.228;11.684;2024-01-30T11:45:29;6.07;;;4.03;;
23402;SDS011;11874;48.228;11.684;2024-01-30T11:47:58;5.30;;;3.60;;
23402;SDS011;11874;48.228;11.684;2024-01-30T11:50:31;10.88;;;3.83;;
23402;SDS011;11874;48.228;11.684;2024-01-30T11:53:01;11.70;;;4.57;;
23402;SDS011;11874;48.228;11.684;2024-01-30T11:55:30;8.43;;;5.40;;
23402;SDS011;11874;48.228;11.684;2024-01-30T11:58:02;11.75;;;5.97;;
23402;SDS011;11874;48.228;11.684;2024-01-30T12:00:31;17.52;;;10.65;;
23402;SDS011;11874;48.228;11.684;2024-01-30T12:03:02;15.57;;;9.90;;
23402;SDS011;11874;48.228;11.684;2024-01-30T12:05:32;10.10;;;6.47;;
23402;SDS011;11874;48.228;11.684;2024-01-30T12:08:01;7.78;;;4.15;;
23402;SDS011;11874;48.228;11.684;2024-01-30T12:10:29;8.25;;;4.10;;
23402;SDS011;11874;48.228;11.684;2024-01-30T12:12:58;11.90;;;4.25;;
23402;SDS011;11874;48.228;11.684;2024-01-30T12:15:28;8.15;;;3.08;;
23402;SDS011;11874;48.228;11.684;2024-01-30T12:18:03;6.03;;;3.10;;
23402;SDS011;11874;48.228;11.684;2024-01-30T12:20:33;10.50;;;3.08;;
23402;SDS011;11874;48.228;11.684;2024-01-30T12:23:02;11.52;;;5.20;;
23402;SDS011;11874;48.228;11.684;2024-01-30T12:25:30;6.28;;;3.58;;
23402;SDS011;11874;48.228;11.684;2024-01-30T12:27:58;5.90;;;3.28;;
23402;SDS011;11874;48.228;11.684;2024-01-30T12:30:28;7.10;;;3.10;;
23402;SDS011;11874;48.228;11.684;2024-01-30T12:32:56;5.10;;;3.03;;
23402;SDS011;11874;48.228;11.684;2024-01-30T12:35:24;6.47;;;2.75;;
23402;SDS011;11874;48.228;11.684;2024-01-30T12:37:58;5.10;;;2.70;;
23402;SDS011;11874;48.228;11.684;2024-01-30T12:40:26;4.97;;;2.65;;
23402;SDS011;11874;48.228;11.684;2024-01-30T12:42:55;4.32;;;2.90;;
23402;SDS011;11874;48.228;11.684;2024-01-30T12:45:24;7.15;;;3.15;;
23402;SDS011;11874;48.228;11.684;2024-01-30T12:47:54;6.32;;;2.70;;
23402;SDS011;11874;48.228;11.684;2024-01-30T12:50:22;5.53;;;2.28;;
23402;SDS011;11874;48.228;11.684;2024-01-30T12:52:50;4.70;;;2.95;;
23402;SDS011;11874;48.228;11.684;2024-01-30T12:55:19;3.95;;;2.80;;
23402;SDS011;11874;48.228;11.684;2024-01-30T12:57:47;6.25;;;2.90;;
23402;SDS011;11874;48.228;11.684;2024-01-30T13:00:16;7.10;;;2.95;;
23402;SDS011;11874;48.228;11.684;2024-01-30T13:02:47;5.30;;;3.08;;
23402;SDS011;11874;48.228;11.684;2024-01-30T13:05:20;7.70;;;2.35;;
23402;SDS011;11874;48.228;11.684;2024-01-30T13:07:48;11.52;;;2.95;;
23402;SDS011;11874;48.228;11.684;2024-01-30T13:10:16;4.75;;;2.50;;
23402;SDS011;11874;48.228;11.684;2024-01-30T13:12:44;5.43;;;2.60;;
23402;SDS011;11874;48.228;11.684;2024-01-30T13:15:12;5.25;;;3.03;;
23402;SDS011;11874;48.228;11.684;2024-01-30T13:17:40;4.68;;;2.60;;
23402;SDS011;11874;48.228;11.684;2024-01-30T13:20:09;5.88;;;2.90;;
23402;SDS011;11874;48.228;11.684;2024-01-30T13:22:39;8.48;;;2.85;;
23402;SDS011;11874;48.228;11.684;2024-01-30T13:25:07;5.38;;;2.90;;
23402;SDS011;11874;48.228;11.684;2024-01-30T13:27:36;8.23;;;3.13;;
23402;SDS011;11874;48.228;11.684;2024-01-30T13:30:06;4.47;;;2.75;;
23402;SDS011;11874;48.228;11.684;2024-01-30T13:32:37;6.40;;;3.13;;
23402;SDS011;11874;48.228;11.684;2024-01-30T13:35:07;8.43;;;3.22;;
23402;SDS011;11874;48.228;11.684;2024-01-30T13:37:35;4.63;;;2.70;;
23402;SDS011;11874;48.228;11.684;2024-01-30T13:40:06;4.93;;;3.15;;
23402;SDS011;11874;48.228;11.684;2024-01-30T13:42:40;4.20;;;3.00;;
23402;SDS011;11874;48.228;11.684;2024-01-30T13:45:08;4.25;;;3.15;;
23402;SDS011;11874;48.228;11.684;2024-01-30T13:47:37;4.90;;;2.97;;
23402;SDS011;11874;48.228;11.684;2024-01-30T13:50:06;8.27;;;3.40;;
23402;SDS011;11874;48.228;11.684;2024-01-30T13:52:35;4.47;;;3.08;;
23402;SDS011;11874;48.228;11.684;2024-01-30T13:55:11;5.38;;;2.95;;
23402;SDS011;11874;48.228;11.684;2024-01-30T13:57:40;8.13;;;3.00;;
23402;SDS011;11874;48.228;11.684;2024-01-30T14:00:09;3.90;;;2.90;;
23402;SDS011;11874;48.228;11.684;2024-01-30T14:02:38;6.70;;;3.13;;
23402;SDS011;11874;48.228;11.684;2024-01-30T14:05:06;7.47;;;3.20;;
23402;SDS011;11874;48.228;11.684;2024-01-30T14:07:36;5.35;;;3.50;;
23402;SDS011;11874;48.228;11.684;2024-01-30T14:10:07;4.50;;;2.90;;
23402;SDS011;11874;48.228;11.684;2024-01-30T14:12:41;5.07;;;3.10;;
23402;SDS011;11874;48.228;11.684;2024-01-30T14:15:10;6.63;;;3.10;;
23402;SDS011;11874;48.228;11.684;2024-01-30T14:17:52;5.50;;;2.83;;
23402;SDS011;11874;48.228;11.684;2024-01-30T14:20:21;7.82;;;3.55;;
23402;SDS011;11874;48.228;11.684;2024-01-30T14:22:49;4.90;;;2.78;;
23402;SDS011;11874;48.228;11.684;2024-01-30T14:25:18;5.30;;;2.50;;
23402;SDS011;11874;48.228;11.684;2024-01-30T14:27:47;9.45;;;2.92;;
23402;SDS011;11874;48.228;11.684;2024-01-30T14:30:15;4.55;;;3.53;;
23402;SDS011;11874;48.228;11.684;2024-01-30T14:32:45;5.32;;;3.30;;
23402;SDS011;11874;48.228;11.684;2024-01-30T14:35:13;7.35;;;3.00;;
23402;SDS011;11874;48.228;11.684;2024-01-30T14:37:42;4.47;;;2.65;;
23402;SDS011;11874;48.228;11.684;2024-01-30T14:40:10;6.25;;;2.95;;
23402;SDS011;11874;48.228;11.684;2024-01-30T14:42:38;4.43;;;3.00;;
23402;SDS011;11874;48.228;11.684;2024-01-30T14:45:07;7.78;;;2.78;;
23402;SDS011;11874;48.228;11.684;2024-01-30T14:47:36;5.85;;;3.13;;
23402;SDS011;11874;48.228;11.684;2024-01-30T14:50:04;9.45;;;3.53;;
23402;SDS011;11874;48.228;11.684;2024-01-30T14:52:35;7.80;;;3.55;;